createdAt,value
2019-02-07T00:02:09.496Z,20.43
2019-02-07T00:04:36.045Z,20.30
2019-02-07T00:07:02.633Z,17.70
2019-02-07T00:09:29.583Z,20.52
2019-02-07T00:11:56.175Z,20.60
2019-02-07T00:14:22.721Z,21.37
2019-02-07T00:16:49.289Z,22.58
2019-02-07T00:19:15.828Z,21.17
2019-02-07T00:21:42.401Z,20.62
2019-02-07T00:24:08.952Z,21.45
2019-02-07T00:26:35.532Z,20.45
2019-02-07T00:29:02.071Z,21.57
2019-02-07T00:31:28.638Z,21.80
2019-02-07T00:33:55.191Z,18.92
2019-02-07T00:36:22.646Z,19.82
2019-02-07T00:38:49.220Z,20.57
2019-02-07T00:41:15.784Z,22.00
2019-02-07T00:43:42.371Z,20.85
2019-02-07T00:46:09.436Z,20.12
2019-02-07T00:48:36.011Z,21.15
2019-02-07T00:51:02.581Z,18.32
2019-02-07T00:53:29.153Z,21.23
2019-02-07T00:55:55.702Z,21.17
2019-02-07T00:58:22.458Z,21.45
2019-02-07T01:00:49.007Z,20.40
2019-02-07T01:03:15.580Z,20.15
2019-02-07T01:05:42.433Z,20.25
2019-02-07T01:08:09.019Z,21.20
2019-02-07T01:10:35.567Z,18.77
2019-02-07T01:13:02.184Z,20.17
2019-02-07T01:15:28.832Z,20.95
2019-02-07T01:17:55.413Z,19.48
2019-02-07T01:20:21.950Z,19.48
2019-02-07T01:22:48.571Z,19.20
2019-02-07T01:25:17.320Z,20.02
2019-02-07T01:27:43.908Z,19.48
2019-02-07T01:30:12.443Z,19.10
2019-02-07T01:32:39.026Z,18.37
2019-02-07T01:35:05.727Z,20.23
2019-02-07T01:37:32.302Z,19.23
2019-02-07T01:39:58.855Z,18.42
2019-02-07T01:42:25.829Z,19.17
2019-02-07T01:44:52.401Z,21.12
2019-02-07T01:47:19.021Z,18.27
2019-02-07T01:49:45.587Z,19.85
2019-02-07T01:52:12.155Z,19.37
2019-02-07T01:54:38.700Z,21.05
2019-02-07T01:57:05.272Z,20.37
2019-02-07T01:59:31.842Z,20.15
2019-02-07T02:01:58.800Z,18.73
2019-02-07T02:04:25.406Z,19.52
2019-02-07T02:06:51.944Z,19.80
2019-02-07T02:09:18.509Z,20.48
2019-02-07T02:11:45.114Z,20.37
2019-02-07T02:14:11.704Z,21.02
2019-02-07T02:16:38.263Z,22.20
2019-02-07T02:19:04.861Z,20.55
2019-02-07T02:21:31.712Z,21.52
2019-02-07T02:23:58.303Z,20.72
2019-02-07T02:26:25.168Z,19.80
2019-02-07T02:28:51.753Z,21.45
2019-02-07T02:31:18.300Z,19.90
2019-02-07T02:33:44.890Z,21.48
2019-02-07T02:36:11.436Z,20.50
2019-02-07T02:38:38.007Z,19.55
2019-02-07T02:41:06.454Z,19.48
2019-02-07T02:43:33.223Z,19.67
2019-02-07T02:45:59.809Z,19.65
2019-02-07T02:48:26.371Z,20.20
2019-02-07T02:50:52.935Z,19.95
2019-02-07T02:53:19.499Z,19.90
2019-02-07T02:55:46.109Z,19.15
2019-02-07T02:58:12.678Z,17.95
2019-02-07T03:01:01.629Z,19.02
2019-02-07T03:03:42.322Z,18.65
2019-02-07T03:06:28.494Z,17.92
2019-02-07T03:09:26.457Z,18.00
2019-02-07T03:12:21.658Z,18.60
2019-02-07T03:15:06.284Z,15.38
2019-02-07T03:18:00.415Z,18.80
2019-02-07T03:20:46.604Z,14.03
2019-02-07T03:23:50.611Z,16.57
2019-02-07T03:26:45.757Z,19.82
2019-02-07T03:29:30.285Z,19.75
2019-02-07T03:32:12.422Z,19.30
2019-02-07T03:35:03.268Z,20.68
2019-02-07T03:37:48.010Z,19.48
2019-02-07T03:40:42.868Z,20.08
2019-02-07T03:43:35.079Z,18.82
2019-02-07T03:46:24.203Z,20.20
2019-02-07T03:49:16.424Z,19.23
2019-02-07T03:52:08.561Z,15.45
2019-02-07T03:55:01.043Z,20.85
2019-02-07T03:57:46.091Z,20.15
2019-02-07T04:00:47.131Z,20.50
2019-02-07T04:06:18.198Z,19.32
2019-02-07T04:09:09.125Z,19.52
2019-02-07T04:15:07.730Z,20.05
2019-02-07T04:17:59.245Z,18.32
2019-02-07T04:20:37.672Z,19.65
2019-02-07T04:23:22.322Z,19.60
2019-02-07T04:26:07.344Z,21.48
2019-02-07T04:28:52.134Z,16.73
2019-02-07T04:31:36.018Z,21.20
2019-02-07T04:34:16.326Z,22.98
2019-02-07T04:37:00.999Z,19.60
2019-02-07T04:39:52.827Z,21.07
2019-02-07T04:42:37.646Z,20.35
2019-02-07T04:45:27.416Z,21.02
2019-02-07T04:48:19.169Z,20.90
2019-02-07T04:51:08.618Z,20.43
2019-02-07T04:53:48.871Z,20.57
2019-02-07T04:56:40.892Z,16.35
2019-02-07T04:59:38.905Z,21.42
2019-02-07T05:02:34.167Z,21.23
2019-02-07T05:05:32.176Z,21.23
2019-02-07T05:08:12.926Z,20.57
2019-02-07T05:10:53.511Z,19.32
2019-02-07T05:13:36.098Z,20.17
2019-02-07T05:16:22.729Z,20.40
2019-02-07T05:19:08.918Z,19.62
2019-02-07T05:22:06.933Z,19.67
2019-02-07T05:24:53.138Z,19.98
2019-02-07T05:27:38.526Z,20.80
2019-02-07T05:30:25.795Z,19.98
2019-02-07T05:33:00.678Z,19.73
2019-02-07T05:35:55.495Z,20.45
2019-02-07T05:38:50.298Z,20.40
2019-02-07T05:41:35.436Z,17.82
2019-02-07T05:44:09.397Z,20.52
2019-02-07T05:46:55.618Z,18.25
2019-02-07T05:49:41.109Z,19.75
2019-02-07T05:52:30.296Z,21.70
2019-02-07T05:55:15.206Z,19.48
2019-02-07T05:58:00.413Z,21.97
2019-02-07T06:00:44.888Z,21.07
2019-02-07T06:03:29.889Z,20.40
2019-02-07T06:06:24.441Z,22.45
2019-02-07T06:09:07.947Z,16.60
2019-02-07T06:11:52.488Z,19.57
2019-02-07T06:14:36.926Z,17.35
2019-02-07T06:17:16.988Z,17.35
2019-02-07T06:19:54.209Z,22.62
2019-02-07T06:22:34.660Z,22.62
2019-02-07T06:25:19.508Z,23.45
2019-02-07T06:28:04.452Z,21.80
2019-02-07T06:30:53.192Z,22.55
2019-02-07T06:33:37.998Z,23.52
2019-02-07T06:36:22.685Z,22.45
2019-02-07T06:39:00.931Z,21.95
2019-02-07T06:42:05.220Z,23.30
2019-02-07T06:44:49.877Z,21.90
2019-02-07T06:47:34.641Z,19.98
2019-02-07T06:50:38.885Z,22.22
2019-02-07T06:53:37.141Z,18.90
2019-02-07T06:56:21.887Z,23.85
2019-02-07T06:59:22.921Z,22.87
2019-02-07T07:05:09.901Z,21.57
2019-02-07T07:07:54.685Z,23.87
2019-02-07T07:10:43.405Z,24.02
2019-02-07T07:13:28.815Z,25.52
2019-02-07T07:16:20.730Z,25.05
2019-02-07T07:19:05.489Z,22.67
2019-02-07T07:21:45.552Z,24.85
2019-02-07T07:24:30.317Z,26.33
2019-02-07T07:27:22.081Z,26.12
2019-02-07T07:30:20.194Z,23.65
2019-02-07T07:32:57.013Z,23.20
2019-02-07T07:35:37.975Z,25.97
2019-02-07T07:38:20.923Z,26.30
2019-02-07T07:41:05.627Z,23.95
2019-02-07T07:43:54.495Z,21.40
2019-02-07T07:46:39.557Z,27.10
2019-02-07T07:49:43.519Z,29.27
2019-02-07T07:52:28.213Z,25.10
2019-02-07T07:55:26.648Z,24.00
2019-02-07T07:58:11.414Z,26.95
2019-02-07T08:01:09.367Z,26.45
2019-02-07T08:03:54.052Z,24.87
2019-02-07T08:06:40.273Z,24.00
2019-02-07T08:09:41.439Z,24.92
2019-02-07T08:12:23.708Z,23.18
2019-02-07T08:15:08.898Z,22.90
2019-02-07T08:17:52.024Z,24.02
2019-02-07T08:20:53.242Z,22.48
2019-02-07T08:23:45.401Z,25.25
2019-02-07T08:26:43.673Z,24.32
2019-02-07T08:29:32.501Z,25.95
2019-02-07T08:32:16.916Z,20.75
2019-02-07T08:35:11.780Z,23.32
2019-02-07T08:37:46.010Z,22.22
2019-02-07T08:40:36.218Z,24.05
2019-02-07T08:43:34.173Z,21.85
2019-02-07T08:46:35.830Z,23.80
2019-02-07T08:49:20.649Z,22.55
2019-02-07T08:52:19.202Z,22.40
2019-02-07T08:55:03.924Z,23.77
2019-02-07T08:57:38.061Z,24.52
2019-02-07T09:00:28.314Z,21.10
2019-02-07T09:03:26.441Z,22.00
2019-02-07T09:06:04.561Z,23.00
2019-02-07T09:08:53.349Z,21.33
2019-02-07T09:11:39.536Z,21.52
2019-02-07T09:14:16.989Z,21.68
2019-02-07T09:16:51.371Z,25.35
2019-02-07T09:19:37.802Z,24.72
2019-02-07T09:22:13.061Z,25.92
2019-02-07T09:24:53.028Z,23.80
2019-02-07T09:27:42.297Z,18.27
2019-02-07T09:30:44.476Z,26.05
2019-02-07T09:33:42.555Z,26.23
2019-02-07T09:36:28.859Z,30.27
2019-02-07T09:39:15.044Z,27.52
2019-02-07T09:42:04.057Z,25.10
2019-02-07T09:44:50.562Z,26.30
2019-02-07T09:47:25.786Z,27.62
2019-02-07T09:50:08.275Z,29.60
2019-02-07T09:52:53.219Z,27.75
2019-02-07T09:55:48.035Z,31.20
2019-02-07T09:58:46.682Z,30.72
2019-02-07T10:01:35.457Z,28.38
2019-02-07T10:04:20.558Z,30.95
2019-02-07T10:06:55.438Z,31.48
2019-02-07T10:09:35.315Z,29.67
2019-02-07T10:12:21.810Z,30.85
2019-02-07T10:15:06.382Z,28.45
2019-02-07T10:17:44.935Z,29.65
2019-02-07T10:20:29.696Z,31.85
2019-02-07T10:23:16.981Z,32.70
2019-02-07T10:26:07.721Z,31.55
2019-02-07T10:28:53.905Z,21.85
2019-02-07T10:31:34.684Z,37.40
2019-02-07T10:34:18.792Z,29.45
2019-02-07T10:37:19.735Z,31.20
2019-02-07T10:42:48.498Z,27.02
2019-02-07T10:45:39.477Z,28.62
2019-02-07T10:48:24.143Z,26.33
2019-02-07T10:51:10.364Z,26.12
2019-02-07T10:53:59.549Z,26.70
2019-02-07T10:56:36.709Z,28.57
2019-02-07T10:59:28.899Z,28.02
2019-02-07T11:02:13.461Z,29.23
2019-02-07T11:04:57.928Z,27.17
2019-02-07T11:07:44.990Z,28.85
2019-02-07T11:10:27.581Z,27.07
2019-02-07T11:13:15.229Z,30.20
2019-02-07T11:16:10.186Z,21.82
2019-02-07T11:18:57.105Z,24.72
2019-02-07T11:21:43.326Z,28.80
2019-02-07T11:24:25.225Z,25.95
2019-02-07T11:27:09.685Z,24.65
2019-02-07T11:29:54.204Z,28.27
2019-02-07T11:32:39.952Z,27.35
2019-02-07T11:35:21.137Z,23.83
2019-02-07T11:37:56.767Z,23.22
2019-02-07T11:40:46.061Z,21.37
2019-02-07T11:43:37.062Z,21.33
2019-02-07T11:46:23.234Z,21.93
2019-02-07T11:49:06.832Z,21.42
2019-02-07T11:51:59.390Z,21.15
2019-02-07T11:54:55.327Z,20.75
2019-02-07T11:57:38.292Z,19.17
2019-02-07T12:00:27.987Z,19.55
2019-02-07T12:03:14.181Z,21.20
2019-02-07T12:05:58.854Z,15.43
2019-02-07T12:08:48.123Z,19.95
2019-02-07T12:11:49.261Z,19.27
2019-02-07T12:14:38.270Z,17.70
2019-02-07T12:17:23.126Z,18.40
2019-02-07T12:20:10.190Z,17.50
2019-02-07T12:22:56.386Z,17.48
2019-02-07T12:25:39.411Z,13.55
2019-02-07T12:28:21.423Z,15.63
2019-02-07T12:30:57.884Z,16.25
2019-02-07T12:33:49.696Z,15.40
2019-02-07T12:36:30.192Z,15.20
2019-02-07T12:39:28.817Z,14.53
2019-02-07T12:42:06.417Z,14.03
2019-02-07T12:44:58.647Z,13.83
2019-02-07T12:47:43.317Z,14.30
2019-02-07T12:50:27.775Z,14.30
2019-02-07T12:53:13.965Z,13.80
2019-02-07T12:55:58.499Z,13.25
2019-02-07T12:58:43.636Z,14.07
2019-02-07T13:01:23.701Z,13.00
2019-02-07T13:04:09.913Z,12.70
2019-02-07T13:06:45.032Z,12.63
2019-02-07T13:09:29.775Z,13.18
2019-02-07T13:12:12.631Z,13.00
2019-02-07T13:14:49.922Z,13.13
2019-02-07T13:17:44.143Z,13.18
2019-02-07T13:20:30.022Z,13.48
2019-02-07T13:23:19.659Z,14.45
2019-02-07T13:25:59.743Z,13.65
2019-02-07T13:28:46.941Z,13.45
2019-02-07T13:31:33.230Z,13.60
2019-02-07T13:34:18.176Z,13.68
2019-02-07T13:37:04.284Z,12.78
2019-02-07T13:39:56.630Z,12.65
2019-02-07T13:42:36.580Z,12.25
2019-02-07T13:45:22.097Z,12.85
2019-02-07T13:48:06.640Z,12.55
2019-02-07T13:51:10.962Z,12.58
2019-02-07T13:54:03.416Z,12.15
2019-02-07T13:56:49.616Z,12.55
2019-02-07T13:59:34.817Z,12.37
2019-02-07T14:02:21.025Z,11.85
2019-02-07T14:05:05.867Z,11.75
2019-02-07T14:07:42.609Z,12.00
2019-02-07T14:10:29.332Z,13.43
2019-02-07T14:13:13.899Z,14.98
2019-02-07T14:16:18.325Z,14.55
2019-02-07T14:19:10.315Z,15.35
2019-02-07T14:22:11.777Z,13.85
2019-02-07T14:24:48.778Z,12.93
2019-02-07T14:27:33.456Z,15.50
2019-02-07T14:30:25.647Z,14.45
2019-02-07T14:33:17.862Z,16.17
2019-02-07T14:36:05.258Z,17.52
2019-02-07T14:38:49.903Z,15.78
2019-02-07T14:41:39.908Z,17.07
2019-02-07T14:44:18.800Z,16.27
2019-02-07T14:46:47.825Z,16.55
2019-02-07T14:49:14.622Z,17.25
2019-02-07T14:51:41.172Z,16.85
2019-02-07T14:54:07.754Z,15.68
2019-02-07T14:56:34.306Z,17.92
2019-02-07T14:59:01.452Z,18.17
2019-02-07T15:01:28.201Z,17.80
2019-02-07T15:03:54.730Z,18.10
2019-02-07T15:06:21.289Z,19.32
2019-02-07T15:08:47.877Z,17.87
2019-02-07T15:11:14.424Z,18.92
2019-02-07T15:13:40.964Z,19.62
2019-02-07T15:16:07.567Z,20.50
2019-02-07T15:18:34.113Z,19.02
2019-02-07T15:21:00.717Z,19.57
2019-02-07T15:23:27.558Z,19.17
2019-02-07T15:25:54.103Z,19.32
2019-02-07T15:28:21.295Z,19.82
2019-02-07T15:30:47.821Z,22.70
2019-02-07T15:33:14.379Z,18.75
2019-02-07T15:35:43.556Z,21.12
2019-02-07T15:38:10.126Z,20.45
2019-02-07T15:40:36.693Z,19.70
2019-02-07T15:43:03.316Z,19.73
2019-02-07T15:45:29.858Z,20.55
2019-02-07T15:47:56.420Z,21.10
2019-02-07T15:50:23.392Z,21.60
2019-02-07T15:52:52.100Z,19.85
2019-02-07T15:55:18.878Z,21.12
2019-02-07T15:57:45.448Z,21.50
2019-02-07T16:00:29.689Z,20.48
2019-02-07T16:03:00.205Z,21.25
2019-02-07T16:05:27.152Z,20.10
2019-02-07T16:07:53.737Z,22.45
2019-02-07T16:10:20.289Z,23.85
2019-02-07T16:12:46.890Z,18.37
2019-02-07T16:15:13.486Z,22.13
2019-02-07T16:17:40.105Z,21.97
2019-02-07T16:20:10.706Z,21.37
2019-02-07T16:22:37.278Z,22.22
2019-02-07T16:25:04.713Z,20.77
2019-02-07T16:27:31.273Z,20.68
2019-02-07T16:29:57.911Z,23.85
2019-02-07T16:32:24.489Z,26.23
2019-02-07T16:34:50.997Z,23.32
2019-02-07T16:37:17.577Z,22.90
2019-02-07T16:39:44.126Z,23.92
2019-02-07T16:42:11.803Z,20.55
2019-02-07T16:44:38.354Z,25.15
2019-02-07T16:47:04.983Z,24.52
2019-02-07T16:49:31.520Z,24.60
2019-02-07T16:51:58.065Z,23.18
2019-02-07T16:54:24.630Z,21.73
2019-02-07T16:56:51.197Z,21.27
2019-02-07T16:59:17.774Z,22.70
2019-02-07T17:01:44.739Z,22.13
2019-02-07T17:04:11.318Z,21.90
2019-02-07T17:06:37.900Z,26.05
2019-02-07T17:09:09.362Z,21.62
2019-02-07T17:11:35.932Z,20.85
2019-02-07T17:14:02.500Z,20.90
2019-02-07T17:16:29.078Z,21.65
2019-02-07T17:18:55.654Z,20.82
2019-02-07T17:21:22.197Z,20.55
2019-02-07T17:23:48.762Z,21.35
2019-02-07T17:26:15.335Z,21.82
2019-02-07T17:28:42.210Z,24.10
2019-02-07T17:31:08.764Z,22.30
2019-02-07T17:33:35.329Z,22.22
2019-02-07T17:36:01.874Z,23.07
2019-02-07T17:38:29.652Z,20.75
2019-02-07T17:40:56.210Z,21.40
2019-02-07T17:43:22.785Z,21.68
2019-02-07T17:45:49.347Z,23.47
2019-02-07T17:48:15.930Z,19.67
2019-02-07T17:50:42.488Z,19.37
2019-02-07T17:53:09.083Z,19.75
2019-02-07T17:55:35.641Z,18.10
2019-02-07T17:58:02.303Z,18.62
2019-02-07T18:00:40.554Z,18.42
2019-02-07T18:03:07.106Z,16.97
2019-02-07T18:05:33.690Z,17.42
2019-02-07T18:08:00.375Z,16.62
2019-02-07T18:10:28.706Z,18.52
2019-02-07T18:12:55.373Z,17.02
2019-02-07T18:15:22.240Z,17.15
2019-02-07T18:17:48.819Z,16.75
2019-02-07T18:20:15.588Z,17.10
2019-02-07T18:22:42.236Z,15.88
2019-02-07T18:25:08.813Z,17.62
2019-02-07T18:27:35.354Z,17.80
2019-02-07T18:30:01.942Z,19.57
2019-02-07T18:32:28.494Z,17.05
2019-02-07T18:34:55.365Z,19.50
2019-02-07T18:37:21.909Z,17.52
2019-02-07T18:39:48.472Z,18.57
2019-02-07T18:42:15.025Z,18.42
2019-02-07T18:44:41.611Z,20.00
2019-02-07T18:47:08.153Z,19.82
2019-02-07T18:49:34.724Z,15.58
2019-02-07T18:52:01.282Z,15.35
2019-02-07T18:54:28.186Z,19.40
2019-02-07T18:56:57.118Z,14.35
2019-02-07T18:59:23.676Z,16.32
2019-02-07T19:01:50.238Z,17.80
2019-02-07T19:04:16.806Z,17.48
2019-02-07T19:06:43.379Z,16.80
2019-02-07T19:09:09.948Z,18.05
2019-02-07T19:11:36.498Z,18.50
2019-02-07T19:14:03.468Z,18.00
2019-02-07T19:16:30.012Z,18.92
2019-02-07T19:18:56.593Z,19.57
2019-02-07T19:21:23.154Z,19.62
2019-02-07T19:23:49.720Z,19.52
2019-02-07T19:26:16.366Z,19.42
2019-02-07T19:28:42.912Z,19.87
2019-02-07T19:31:09.487Z,19.02
2019-02-07T19:33:36.029Z,18.73
2019-02-07T19:36:02.808Z,17.40
2019-02-07T19:38:29.341Z,18.32
2019-02-07T19:40:55.913Z,18.75
2019-02-07T19:43:22.474Z,18.32
2019-02-07T19:45:54.894Z,19.27
2019-02-07T19:48:21.484Z,19.50
2019-02-07T19:50:48.069Z,18.67
2019-02-07T19:53:15.013Z,20.75
2019-02-07T19:55:41.574Z,18.17
2019-02-07T19:58:08.121Z,17.57
2019-02-07T20:00:34.691Z,18.25
2019-02-07T20:03:01.322Z,17.37
2019-02-07T20:05:27.918Z,17.10
2019-02-07T20:07:54.468Z,18.17
2019-02-07T20:10:21.955Z,17.20
2019-02-07T20:12:48.897Z,18.10
2019-02-07T20:15:18.690Z,16.10
2019-02-07T20:17:45.229Z,14.77
2019-02-07T20:20:12.049Z,14.00
2019-02-07T20:22:38.617Z,15.65
2019-02-07T20:25:06.454Z,13.08
2019-02-07T20:27:33.045Z,12.33
2019-02-07T20:29:59.589Z,12.35
2019-02-07T20:32:26.175Z,9.00
2019-02-07T20:34:53.134Z,9.48
2019-02-07T20:37:19.698Z,8.85
2019-02-07T20:39:46.247Z,8.28
2019-02-07T20:42:12.810Z,8.50
2019-02-07T20:44:39.388Z,7.35
2019-02-07T20:47:05.920Z,7.58
2019-02-07T20:49:32.456Z,5.83
2019-02-07T20:51:59.016Z,6.20
2019-02-07T20:54:25.566Z,6.12
2019-02-07T20:56:52.531Z,6.30
2019-02-07T20:59:19.086Z,6.17
2019-02-07T21:01:45.641Z,4.00
2019-02-07T21:04:12.185Z,6.33
2019-02-07T21:06:38.767Z,5.15
2019-02-07T21:09:07.285Z,5.75
2019-02-07T21:11:33.851Z,4.55
2019-02-07T21:14:00.397Z,4.90
2019-02-07T21:16:26.954Z,5.00
2019-02-07T21:18:53.942Z,4.70
2019-02-07T21:21:20.481Z,5.53
2019-02-07T21:23:47.049Z,4.53
2019-02-07T21:26:13.614Z,5.00
2019-02-07T21:28:40.176Z,4.83
2019-02-07T21:31:07.124Z,5.40
2019-02-07T21:33:33.697Z,5.00
2019-02-07T21:36:00.259Z,5.28
2019-02-07T21:38:26.822Z,5.45
2019-02-07T21:40:55.119Z,5.97
2019-02-07T21:43:21.695Z,5.03
2019-02-07T21:45:48.231Z,4.80
2019-02-07T21:48:14.805Z,5.70
2019-02-07T21:50:41.357Z,4.42
2019-02-07T21:53:07.923Z,4.45
2019-02-07T21:55:34.563Z,3.45
2019-02-07T21:58:01.116Z,3.52
2019-02-07T22:00:30.503Z,3.75
2019-02-07T22:02:57.081Z,2.50
2019-02-07T22:05:23.624Z,2.50
2019-02-07T22:07:50.190Z,3.12
2019-02-07T22:10:16.797Z,2.98
2019-02-07T22:12:43.354Z,2.40
2019-02-07T22:15:12.635Z,2.80
2019-02-07T22:17:39.186Z,2.83
2019-02-07T22:20:10.092Z,3.20
2019-02-07T22:22:36.629Z,2.40
2019-02-07T22:25:03.501Z,2.95
2019-02-07T22:27:30.052Z,2.30
2019-02-07T22:29:56.625Z,2.90
2019-02-07T22:32:23.161Z,3.52
2019-02-07T22:34:49.722Z,3.15
2019-02-07T22:37:16.380Z,2.50
2019-02-07T22:39:42.950Z,2.55
2019-02-07T22:42:09.491Z,2.72
2019-02-07T22:44:36.066Z,2.75
2019-02-07T22:47:02.608Z,3.58
2019-02-07T22:49:29.185Z,3.00
2019-02-07T22:51:57.818Z,3.30
2019-02-07T22:54:24.377Z,3.40
2019-02-07T22:56:50.930Z,3.20
2019-02-07T22:59:17.484Z,3.83
2019-02-07T23:01:49.290Z,3.35
2019-02-07T23:04:16.374Z,2.37
2019-02-07T23:06:42.941Z,3.08
2019-02-07T23:09:10.592Z,2.85
2019-02-07T23:11:37.369Z,3.12
2019-02-07T23:14:04.075Z,3.50
2019-02-07T23:16:30.620Z,3.50
2019-02-07T23:18:57.172Z,3.50
2019-02-07T23:21:23.750Z,3.62
2019-02-07T23:23:50.302Z,3.25
2019-02-07T23:26:16.863Z,3.75
2019-02-07T23:28:43.417Z,2.62
2019-02-07T23:31:09.999Z,3.87
2019-02-07T23:33:36.803Z,3.17
2019-02-07T23:36:04.433Z,3.33
2019-02-07T23:38:30.972Z,2.60
2019-02-07T23:40:57.539Z,3.72
2019-02-07T23:43:24.092Z,3.37
2019-02-07T23:45:50.648Z,3.70
2019-02-07T23:48:17.191Z,3.72
2019-02-07T23:50:43.750Z,3.35
2019-02-07T23:53:15.362Z,3.62
2019-02-07T23:55:38.781Z,3.75
2019-02-07T23:58:05.305Z,3.08
